Estherville, Estherville Municipal Airport (KEST)

NameEstherville Municipal Airport
CityEstherville
CountryUnited States
ICAOKEST
IATAEST
Altitude402 m
CoordinatesGoogle Map
Live Air TrafficLiveATC.net
METARKEST 141052Z AUTO 34009KT 10SM OVC017 M07/M11 A3020 RMK AO2 SLP245 T10721106
2019-11-14 10:52:00 Wind: North-Northwest (340°) 4.63 m/s - Visibility: 16093.4 m - Temperature: -7 °C - Dew point: -11 °C - Humidity: 73.4% - Pressure: 1022.69 hPa

Sorry, no flights used the airport in this database.